Main page
METAR-TAF:

METAR-TAF

Airports :

Christchurch, New Zealand

Christchurch International Airport

latitude: 43-29S, longitude: 172-33E, elevation: 38 m

Current weather observation

The report was made 39 minutes ago, at 23:30 UTC
Wind 11 kt from the East/Northeast, varying between North/Northeast and East
Temperature 19°C
Humidity 68%
Pressure 1030 hPa
Visibility 10 km or more

METAR: NZCH 262330Z AUTO 06011KT 020V090 9999 SCT023/// 19/13 Q1030 NOSIG

Time: 13:09 (00:09 UTC)

Forecast

The report was made 56 minutes ago, at 23:13 UTC
Forecast valid from 27 at 00 UTC to 28 at 00 UTC
Wind 12 kt from the East/Northeast
Visibility 10 km or more
Few clouds at a height of 2500 ft
From 27 at 0900 UTC
Wind 2 kt from variable directions
Visibility 10 km or more
no clouds below 1500 m and no cumulonimbus
Probability 40%
from 27 at 13 UTC to 27 at 18 UTC
Visibility: 0500 m
fog

TAF: NZCH 262313Z 2700/2800 07012KT 9999 FEW025 FM270900 VRB02KT CAVOK PROB40 2713/2718 0500 FG

Weather observations and forecasts of more than 4000 airports (METAR and TAF reports).

The available stations are represented by yellow and red dots on the map.

Hover mouse over dot to see the name of the station.

Then click to see weather observations and forecasts.

To change the map : click on the green buttons with a black cross to zoom in, on the green button with a dash to zoom out, or on the green arrows for adjacent maps.


METAR-TAF: